Time;durP1;ratioP1;P1;durP2;ratioP2;P2;SDS_P1;SDS_P2;PMS_P1;PMS_P2;Temp;Humidity;BMP_temperature;BMP_pressure;BME280_temperature;BME280_humidity;BME280_pressure;Samples;Min_cycle;Max_cycle;Signal;HPM_P1;HPM_P2
2023/10/13 00:01:56;;;;;;;0.13;0.13;;;;;;;23.63;76.80;101175.56;5130751;27;20051;-73
2023/10/13 00:04:22;;;;;;;0.17;0.17;;;;;;;24.29;72.82;101167.16;5129700;27;20034;-73
2023/10/13 00:06:47;;;;;;;0.05;0.05;;;;;;;24.11;72.29;101172.69;5129222;27;20407;-73
2023/10/13 00:09:14;;;;;;;0.15;0.05;;;;;;;24.47;71.54;101179.34;5110353;28;20114;-73
2023/10/13 00:11:47;;;;;;;0.00;0.00;;;;;;;24.28;73.23;101176.13;5091539;28;20122;-73
2023/10/13 00:14:16;;;;;;;0.00;0.00;;;;;;;25.39;67.42;101161.00;5122278;27;20026;-74
2023/10/13 00:17:00;;;;;;;0.00;0.00;;;;;;;23.84;74.07;101165.38;5110698;28;20023;-74
2023/10/13 00:19:46;;;;;;;0.30;0.30;;;;;;;23.68;77.35;101159.25;5109900;28;20057;-74
2023/10/13 00:22:15;;;;;;;6.30;1.08;;;;;;;24.37;72.40;101154.16;5091782;28;20062;-73
2023/10/13 00:24:51;;;;;;;0.00;0.00;;;;;;;24.16;72.79;101153.72;5115443;28;20546;-74
2023/10/13 00:27:29;;;;;;;2.17;0.52;;;;;;;24.09;74.41;101149.72;5104977;28;20072;-74
2023/10/13 00:30:15;;;;;;;0.38;0.38;;;;;;;24.09;73.68;101155.91;5112220;28;20060;-73
2023/10/13 00:32:46;;;;;;;0.15;0.15;;;;;;;24.10;73.70;101140.72;5130301;28;20114;-73
2023/10/13 00:35:24;;;;;;;0.22;0.10;;;;;;;23.77;75.32;101134.69;5111315;28;20023;-74
2023/10/13 00:37:53;;;;;;;0.65;0.40;;;;;;;23.62;77.79;101144.47;5124719;28;20016;-74
2023/10/13 00:40:55;;;;;;;0.68;0.55;;;;;;;23.87;74.26;101146.50;5106075;28;20056;-73
2023/10/13 00:46:33;;;;;;;0.68;0.68;;;;;;;24.30;73.04;101136.81;5130524;28;20023;-73
2023/10/13 00:48:51;;;;;;;0.47;0.47;;;;;;;23.77;75.21;101134.69;5110820;28;20039;-74
2023/10/13 00:52:03;;;;;;;0.15;0.15;;;;;;;23.65;77.44;101120.28;5092165;28;20487;-73
2023/10/13 00:54:11;;;;;;;0.15;0.15;;;;;;;24.32;73.23;101117.06;5111556;28;20044;-74
2023/10/13 00:56:57;;;;;;;0.00;0.00;;;;;;;23.48;78.25;101113.31;5091797;28;20028;-73
2023/10/13 00:59:25;;;;;;;0.93;0.35;;;;;;;24.85;69.10;101111.06;5110336;28;20498;-73
2023/10/13 01:01:54;;;;;;;0.10;0.10;;;;;;;24.53;70.56;101104.16;5109590;28;20051;-74
2023/10/13 01:04:20;;;;;;;0.00;0.00;;;;;;;23.65;76.64;101103.41;5110504;28;20030;-74
2023/10/13 01:06:46;;;;;;;0.00;0.00;;;;;;;24.60;70.67;101104.59;5108930;27;20031;-74
2023/10/13 01:09:16;;;;;;;0.00;0.00;;;;;;;23.36;78.32;101098.88;5113584;28;20094;-74
2023/10/13 01:11:52;;;;;;;0.60;0.13;;;;;;;24.46;71.77;101094.81;5114054;27;20039;-73
2023/10/13 01:14:18;;;;;;;0.00;0.00;;;;;;;24.83;70.99;101081.75;5094967;28;20030;-74
2023/10/13 01:16:52;;;;;;;0.30;0.13;;;;;;;23.63;74.75;101083.97;5129543;27;20027;-74
2023/10/13 01:19:19;;;;;;;0.00;0.00;;;;;;;24.21;70.61;101080.38;5117052;27;20471;-74
2023/10/13 01:21:45;;;;;;;0.00;0.00;;;;;;;23.32;76.25;101083.16;5128783;27;20368;-75
2023/10/13 01:24:15;;;;;;;0.35;0.35;;;;;;;23.72;76.74;101083.41;5114324;27;20307;-74
2023/10/13 01:26:42;;;;;;;6.30;1.35;;;;;;;23.75;74.91;101082.38;5130166;27;20030;-74
2023/10/13 01:29:12;;;;;;;0.50;0.50;;;;;;;24.42;72.99;101079.94;5094254;28;20490;-74
2023/10/13 01:31:47;;;;;;;0.00;0.00;;;;;;;23.47;78.77;101068.06;5095328;27;20126;-74
2023/10/13 01:34:23;;;;;;;1.45;0.57;;;;;;;24.68;70.51;101062.25;5094879;28;20073;-74
2023/10/13 01:36:53;;;;;;;4.40;0.47;;;;;;;25.03;68.26;101060.84;5129079;27;20339;-73
2023/10/13 01:39:28;;;;;;;0.00;0.00;;;;;;;24.26;73.37;101065.84;5103010;28;20076;-74
2023/10/13 01:41:57;;;;;;;0.25;0.25;;;;;;;24.25;72.80;101069.47;5094495;27;20123;-74
2023/10/13 01:44:30;;;;;;;8.20;1.35;;;;;;;22.80;80.08;101069.25;5095187;28;20059;-74
2023/10/13 01:47:06;;;;;;;0.00;0.00;;;;;;;24.00;74.54;101055.03;5113349;28;20027;-74
2023/10/13 01:49:47;;;;;;;0.50;0.50;;;;;;;24.03;74.11;101052.19;5094181;28;20058;-74
2023/10/13 01:52:16;;;;;;;0.10;0.10;;;;;;;23.68;75.95;101050.72;5111716;27;20035;-73
2023/10/13 01:54:45;;;;;;;0.00;0.00;;;;;;;23.90;76.72;101049.41;5125405;27;20031;-72
2023/10/13 01:57:13;;;;;;;0.00;0.00;;;;;;;24.17;72.32;101030.78;5112209;28;20180;-72
2023/10/13 01:59:44;;;;;;;0.17;0.17;;;;;;;24.26;72.03;101039.16;5111788;28;20034;-72
2023/10/13 02:02:12;;;;;;;0.00;0.00;;;;;;;23.60;76.59;101030.81;5112917;28;20027;-73
2023/10/13 02:04:43;;;;;;;0.22;0.22;;;;;;;23.86;76.11;101031.84;5094756;28;20031;-72
2023/10/13 02:07:14;;;;;;;0.00;0.00;;;;;;;24.88;69.87;101011.94;5112648;27;20130;-73
2023/10/13 02:09:40;;;;;;;0.00;0.00;;;;;;;23.90;72.18;101011.19;5116826;27;20031;-72
2023/10/13 02:12:05;;;;;;;0.03;0.03;;;;;;;24.04;70.61;101003.16;5130918;27;20038;-72
2023/10/13 02:14:33;;;;;;;0.00;0.00;;;;;;;24.07;71.22;101008.31;5100543;28;20042;-72
2023/10/13 02:17:13;;;;;;;0.10;0.10;;;;;;;23.42;75.71;100996.31;5111871;27;20080;-72
2023/10/13 02:19:46;;;;;;;3.55;0.40;;;;;;;24.34;70.96;100994.97;5111973;28;20024;-73
2023/10/13 02:22:26;;;;;;;0.13;0.13;;;;;;;25.09;67.81;100990.91;5112582;28;20035;-72
2023/10/13 02:24:52;;;;;;;0.57;0.57;;;;;;;23.72;73.43;101000.69;5112824;27;20031;-73
2023/10/13 02:27:22;;;;;;;0.10;0.10;;;;;;;24.89;68.04;100985.13;5122213;27;20080;-72
2023/10/13 02:29:50;;;;;;;0.55;0.55;;;;;;;25.21;66.66;100979.38;5094623;28;20035;-73
2023/10/13 02:32:18;;;;;;;0.63;0.63;;;;;;;25.23;66.12;100982.78;5110883;27;20035;-73
2023/10/13 02:34:45;;;;;;;0.00;0.00;;;;;;;24.73;69.53;100969.25;5114527;27;20019;-73
2023/10/13 02:37:12;;;;;;;2.60;0.65;;;;;;;24.56;68.61;100959.69;5132811;27;20223;-72
2023/10/13 02:39:41;;;;;;;0.63;0.63;;;;;;;25.07;66.51;100963.41;5121471;27;20038;-72
2023/10/13 02:42:16;;;;;;;1.98;0.98;;;;;;;25.18;65.62;100950.16;5123582;27;20478;-72
2023/10/13 02:44:45;;;;;;;0.00;0.00;;;;;;;24.86;66.36;100941.69;5094268;28;20019;-73
2023/10/13 02:47:14;;;;;;;0.00;0.00;;;;;;;25.62;62.48;100928.41;5093161;28;20072;-73
2023/10/13 02:49:43;;;;;;;0.52;0.35;;;;;;;25.56;63.35;100929.72;5093850;27;20044;-73
2023/10/13 02:52:12;;;;;;;0.10;0.10;;;;;;;25.64;62.10;100916.63;5093805;28;20039;-72
2023/10/13 02:54:47;;;;;;;0.00;0.00;;;;;;;25.14;66.21;100929.97;5119913;27;20031;-73
2023/10/13 02:57:15;;;;;;;0.90;0.90;;;;;;;25.54;63.75;100916.44;5097349;28;20034;-72
2023/10/13 02:59:46;;;;;;;0.00;0.00;;;;;;;24.78;67.64;100928.84;5119085;27;20436;-73
2023/10/13 03:02:25;;;;;;;0.10;0.10;;;;;;;24.50;69.42;100924.50;5113398;27;20031;-73
2023/10/13 03:04:51;;;;;;;0.00;0.00;;;;;;;24.19;71.38;100938.09;5114229;27;20439;-72
2023/10/13 03:07:23;;;;;;;0.00;0.00;;;;;;;23.48;73.40;100921.25;5131948;27;20538;-73
2023/10/13 03:09:52;;;;;;;0.00;0.00;;;;;;;24.77;68.44;100907.56;5130388;27;20062;-74
2023/10/13 03:12:20;;;;;;;0.60;0.60;;;;;;;24.64;68.40;100910.25;5113735;27;20023;-74
2023/10/13 03:14:48;;;;;;;0.65;0.65;;;;;;;24.27;68.98;100889.50;5112725;27;20038;-74
2023/10/13 03:17:16;;;;;;;0.55;0.40;;;;;;;24.18;69.00;100882.97;5113663;27;20054;-75
2023/10/13 03:19:49;;;;;;;1.08;0.65;;;;;;;24.37;69.97;100871.03;5131621;27;20033;-74
2023/10/13 03:22:16;;;;;;;;;;;;;;;24.67;67.94;100853.91;5113789;27;20114;-74
2023/10/13 03:24:46;;;;;;;0.08;0.08;;;;;;;24.40;69.67;100849.50;5098822;28;20382;-74
2023/10/13 03:27:22;;;;;;;0.00;0.00;;;;;;;24.16;70.52;100842.16;5092571;28;20542;-74
2023/10/13 03:29:48;;;;;;;0.10;0.10;;;;;;;23.78;72.97;100842.88;5099432;28;20371;-74
2023/10/13 03:32:17;;;;;;;0.00;0.00;;;;;;;23.60;70.37;100838.72;5131313;27;20034;-74
2023/10/13 03:34:54;;;;;;;0.30;0.30;;;;;;;24.25;70.27;100845.16;5112417;27;20114;-74
2023/10/13 03:37:39;;;;;;;0.00;0.00;;;;;;;23.76;72.06;100839.44;5112879;27;20061;-73
2023/10/13 03:40:33;;;;;;;0.40;0.22;;;;;;;23.58;72.16;100819.31;5103515;27;20038;-73
2023/10/13 03:43:33;;;;;;;0.00;0.00;;;;;;;24.32;68.98;100803.75;5109977;27;20486;-72
2023/10/13 03:46:07;;;;;;;0.22;0.22;;;;;;;23.79;72.02;100796.53;5114123;27;20043;-74
2023/10/13 03:48:40;;;;;;;2.53;0.30;;;;;;;24.12;70.61;100805.94;5110756;28;20126;-73
2023/10/13 03:51:13;;;;;;;0.00;0.00;;;;;;;23.92;70.18;100795.75;5111111;28;20094;-73
2023/10/13 03:53:52;;;;;;;2.90;2.63;;;;;;;24.03;72.97;100795.91;5092770;28;20061;-73
2023/10/13 03:56:38;;;;;;;0.00;0.00;;;;;;;24.45;69.69;100775.22;5101118;27;20026;-73
2023/10/13 03:59:09;;;;;;;0.75;0.40;;;;;;;24.31;71.00;100767.31;5108178;27;20060;-73
2023/10/13 04:04:47;;;;;;;0.00;0.00;;;;;;;24.72;67.76;100760.94;5110764;28;20034;-73
2023/10/13 04:07:16;;;;;;;1.25;0.20;;;;;;;23.59;72.58;100762.31;5109190;28;20020;-73
2023/10/13 04:15:17;;;;;;;0.00;0.00;;;;;;;24.60;70.81;100764.44;5131466;27;20513;-72
2023/10/13 04:17:44;;;;;;;0.10;0.10;;;;;;;24.39;70.02;100762.31;5109950;28;20028;-73
2023/10/13 04:41:41;;;;;;;0.00;0.00;;;;;;;23.62;78.27;100714.97;5131294;27;20031;-72
2023/10/13 04:49:49;;;;;;;0.00;0.00;;;;;;;23.06;88.10;100723.03;5124484;27;20031;-72
2023/10/13 04:52:38;;;;;;;0.00;0.00;;;;;;;23.51;82.83;100712.16;5116418;27;20435;-72
2023/10/13 05:02:54;;;;;;;0.00;0.00;;;;;;;24.01;85.12;100699.03;5115790;27;20586;-73
2023/10/13 05:46:49;;;;;;;0.00;0.00;;;;;;;23.79;72.83;100631.09;5114988;27;20520;-72
2023/10/13 05:52:07;;;;;;;0.55;0.55;;;;;;;24.31;70.32;100615.09;5132227;27;20039;-72
2023/10/13 06:30:17;;;;;;;0.00;0.00;;;;;;;24.48;71.62;100564.00;5113167;27;20088;-73
2023/10/13 06:32:46;;;;;;;0.00;0.00;;;;;;;25.01;71.21;100557.47;5110222;27;20118;-73
2023/10/13 06:35:23;;;;;;;0.05;0.05;;;;;;;24.71;73.47;100553.44;5111064;27;20031;-73
2023/10/13 06:37:53;;;;;;;3.53;1.38;;;;;;;23.71;78.63;100548.06;5098709;28;20031;-73
2023/10/13 06:43:11;;;;;;;0.60;0.57;;;;;;;24.50;76.03;100545.19;5133267;27;20118;-72
2023/10/13 06:45:37;;;;;;;0.10;0.10;;;;;;;25.23;73.52;100538.81;5112664;27;20035;-73
2023/10/13 06:48:04;;;;;;;1.05;0.80;;;;;;;24.14;76.85;100531.72;5107710;28;20019;-73
2023/10/13 06:50:38;;;;;;;0.00;0.00;;;;;;;25.39;71.24;100527.00;5120906;27;20468;-73
2023/10/13 06:53:03;;;;;;;0.35;0.35;;;;;;;24.65;75.49;100521.88;5121939;27;20031;-73
2023/10/13 06:55:34;;;;;;;0.30;0.30;;;;;;;25.67;70.19;100508.78;5125219;27;20027;-73
2023/10/13 06:58:00;;;;;;;18.10;1.80;;;;;;;24.99;75.58;100503.25;5112517;27;20127;-71
2023/10/13 07:00:29;;;;;;;0.00;0.00;;;;;;;25.44;73.14;100500.72;5113078;27;20058;-73
2023/10/13 07:03:05;;;;;;;0.15;0.15;;;;;;;24.69;74.54;100499.28;5131890;27;20026;-72
2023/10/13 07:05:34;;;;;;;0.43;0.38;;;;;;;24.42;78.17;100500.31;5111400;27;20486;-72
2023/10/13 07:08:04;;;;;;;0.65;0.38;;;;;;;24.58;76.28;100489.38;5113411;27;20027;-72
2023/10/13 07:10:30;;;;;;;0.43;0.43;;;;;;;25.11;74.80;100488.97;5126674;27;20042;-73
2023/10/13 07:13:00;;;;;;;0.82;0.82;;;;;;;25.20;72.29;100496.28;5094753;27;20092;-68
2023/10/13 07:15:29;;;;;;;2.88;2.42;;;;;;;25.22;72.35;100499.72;5121440;27;20562;-68
2023/10/13 07:17:59;;;;;;;0.40;0.40;;;;;;;25.26;74.43;100518.19;5111456;27;20432;-68
2023/10/13 07:23:11;;;;;;;0.70;0.70;;;;;;;25.02;75.33;100501.22;5117323;27;20035;-68
2023/10/13 07:25:38;;;;;;;2.17;1.95;;;;;;;25.41;71.63;100492.94;5106315;27;20390;-67
2023/10/13 07:28:04;;;;;;;0.00;0.00;;;;;;;24.13;77.44;100505.97;5109157;28;20038;-68
2023/10/13 07:30:39;;;;;;;0.10;0.10;;;;;;;25.36;72.94;100495.13;5110908;28;20106;-67
2023/10/13 07:33:05;;;;;;;0.00;0.00;;;;;;;24.52;76.76;100501.38;5092236;27;20534;-68
2023/10/13 07:35:35;;;;;;;2.20;2.00;;;;;;;24.49;77.45;100490.88;5128035;27;20046;-67
2023/10/13 07:38:01;;;;;;;4.85;2.10;;;;;;;24.22;77.74;100499.09;5111400;27;20375;-67
2023/10/13 07:43:10;;;;;;;0.25;0.25;;;;;;;24.19;77.92;100489.53;5122711;27;20032;-68
2023/10/13 07:45:36;;;;;;;;;;;;;;;24.95;74.11;100496.44;5114313;27;20030;-69
2023/10/13 07:48:16;;;;;;;0.00;0.00;;;;;;;25.24;72.19;100500.41;5128500;27;19919;-67
2023/10/13 07:50:44;;;;;;;16.75;1.00;;;;;;;24.25;75.96;100508.72;5123484;27;20042;-68
2023/10/13 07:53:24;;;;;;;0.00;0.00;;;;;;;25.24;71.23;100492.41;5109209;28;20031;-68
2023/10/13 07:55:55;;;;;;;0.68;0.68;;;;;;;24.12;75.70;100496.25;5121924;27;20459;-68
2023/10/13 07:58:24;;;;;;;10.05;2.95;;;;;;;24.66;73.88;100486.13;5120125;27;20506;-69
2023/10/13 08:01:06;;;;;;;0.00;0.00;;;;;;;24.60;75.05;100486.56;5110428;27;20058;-67
2023/10/13 08:03:45;;;;;;;0.00;0.00;;;;;;;24.84;74.01;100482.09;5113269;27;20028;-68
2023/10/13 08:08:43;;;;;;;0.00;0.00;;;;;;;24.67;72.01;100477.16;5114168;27;20035;-67
2023/10/13 08:11:26;;;;;;;0.15;0.15;;;;;;;24.43;73.04;100485.13;5108817;28;20487;-68
2023/10/13 08:14:10;;;;;;;0.00;0.00;;;;;;;24.82;71.32;100476.00;5120926;27;20031;-68
2023/10/13 08:16:52;;;;;;;0.00;0.00;;;;;;;26.10;65.47;100475.06;5120200;27;20121;-67
2023/10/13 08:19:26;;;;;;;0.05;0.05;;;;;;;24.83;71.25;100475.03;5128009;27;20348;-67
2023/10/13 08:21:59;;;;;;;1.63;1.52;;;;;;;26.05;63.87;100467.44;5125442;28;20027;-68
2023/10/13 08:45:20;;;;;;;0.10;0.10;;;;;;;25.55;62.22;100441.91;5122250;28;20039;-67
2023/10/13 08:47:53;;;;;;;0.00;0.00;;;;;;;25.73;63.86;100438.69;5122658;28;20107;-68
2023/10/13 08:53:26;;;;;;;7.20;2.92;;;;;;;24.83;65.04;100434.94;5109063;28;20046;-67
2023/10/13 08:56:36;;;;;;;10.43;4.10;;;;;;;25.36;63.77;100430.91;5091108;28;20024;-67
2023/10/13 09:04:20;;;;;;;5.32;2.83;;;;;;;25.22;63.19;100435.53;5112969;28;20043;-67
2023/10/13 09:15:17;;;;;;;12.15;3.10;;;;;;;25.74;59.85;100414.47;5114189;28;20052;-67
2023/10/13 09:17:51;;;;;;;10.48;2.92;;;;;;;24.90;62.47;100406.78;5109487;28;20023;-67
2023/10/13 09:25:35;;;;;;;12.98;3.97;;;;;;;26.20;57.84;100396.53;5108950;28;20170;-67
2023/10/13 09:28:14;;;;;;;19.90;4.20;;;;;;;25.60;59.96;100401.38;5109786;27;20055;-67
2023/10/13 09:30:47;;;;;;;7.88;2.85;;;;;;;26.35;57.42;100385.50;5115593;27;20031;-67
2023/10/13 09:33:15;;;;;;;;;;;;;;;25.93;58.52;100380.88;5125975;27;20559;-67
2023/10/13 09:35:49;;;;;;;4.82;2.38;;;;;;;25.60;59.49;100385.31;5133543;27;19915;-67
2023/10/13 09:38:15;;;;;;;8.10;2.55;;;;;;;26.28;57.56;100384.31;5114276;27;20073;-67
2023/10/13 09:40:49;;;;;;;10.43;3.35;;;;;;;25.25;60.35;100380.91;5130314;27;20578;-67
2023/10/13 09:43:19;;;;;;;5.70;3.35;;;;;;;26.02;57.88;100366.78;5114440;27;20035;-68
2023/10/13 09:46:07;;;;;;;5.15;2.92;;;;;;;26.10;59.02;100374.16;5122356;27;20027;-67
2023/10/13 09:48:40;;;;;;;8.77;3.08;;;;;;;26.82;55.78;100359.22;5111668;28;20075;-68
2023/10/13 09:51:21;;;;;;;11.25;2.85;;;;;;;26.45;57.86;100367.69;5107771;27;20027;-68
2023/10/13 09:54:09;;;;;;;13.45;2.90;;;;;;;26.82;56.21;100361.03;5125717;27;20035;-67
2023/10/13 09:56:51;;;;;;;7.90;2.65;;;;;;;26.97;54.62;100353.50;5113788;27;20027;-67
2023/10/13 09:59:22;;;;;;;11.45;2.90;;;;;;;26.59;55.18;100358.47;5112142;28;20467;-67
2023/10/13 10:01:51;;;;;;;4.90;2.70;;;;;;;25.84;57.20;100349.50;5121704;27;20506;-67
2023/10/13 10:04:19;;;;;;;6.80;2.83;;;;;;;26.52;56.36;100344.75;5112028;27;20467;-67
2023/10/13 10:06:59;;;;;;;11.23;2.53;;;;;;;26.63;54.93;100345.69;5114277;27;20102;-67
2023/10/13 10:09:37;;;;;;;10.60;3.08;;;;;;;26.72;54.72;100355.63;5117333;27;20119;-67
2023/10/13 10:12:21;;;;;;;12.10;3.35;;;;;;;26.95;54.54;100339.38;5123171;27;20031;-67
2023/10/13 10:15:28;;;;;;;11.02;3.35;;;;;;;27.18;54.35;100332.84;5121313;27;20023;-68
2023/10/13 10:17:54;;;;;;;6.25;2.72;;;;;;;27.06;54.25;100331.25;5132240;27;20019;-67
2023/10/13 10:20:45;;;;;;;6.70;2.60;;;;;;;26.81;53.94;100330.72;5119770;27;20055;-67
2023/10/13 10:23:21;;;;;;;7.75;3.53;;;;;;;26.60;54.39;100330.72;5110308;27;20322;-68
2023/10/13 10:25:48;;;;;;;14.50;2.95;;;;;;;26.91;53.25;100331.63;5121467;27;20062;-67
2023/10/13 10:28:16;;;;;;;5.47;2.30;;;;;;;26.94;54.36;100335.00;5131687;27;20027;-67
2023/10/13 10:30:43;;;;;;;8.15;3.17;;;;;;;27.09;53.29;100330.97;5124779;27;20035;-67
2023/10/13 10:33:13;;;;;;;7.22;2.38;;;;;;;26.84;54.14;100337.63;5095092;27;20041;-67
2023/10/13 10:35:43;;;;;;;13.50;2.65;;;;;;;27.11;53.20;100334.38;5117842;27;20110;-67
2023/10/13 10:40:57;;;;;;;11.63;2.58;;;;;;;26.73;54.12;100309.06;5122188;27;20038;-68
2023/10/13 10:43:57;;;;;;;4.63;2.25;;;;;;;26.97;54.12;100315.97;5121259;27;20035;-67
2023/10/13 10:46:28;;;;;;;8.93;2.60;;;;;;;26.47;55.16;100309.44;5127483;27;20027;-67
2023/10/13 10:49:00;;;;;;;11.60;3.28;;;;;;;26.14;54.91;100322.03;5113065;27;20031;-68
2023/10/13 10:51:31;;;;;;;6.65;2.42;;;;;;;27.42;52.17;100304.84;5123049;27;20502;-67
2023/10/13 10:54:11;;;;;;;5.70;3.13;;;;;;;27.36;51.46;100308.09;5111019;27;20023;-67
2023/10/13 10:56:36;;;;;;;9.90;3.13;;;;;;;26.73;52.85;100298.34;5111324;27;20031;-67
2023/10/13 10:59:04;;;;;;;8.27;2.25;;;;;;;26.80;52.26;100280.75;5114585;27;20023;-68
2023/10/13 11:01:33;;;;;;;8.85;2.80;;;;;;;27.14;51.69;100282.31;5121534;27;20050;-67
2023/10/13 11:04:08;;;;;;;8.20;4.28;;;;;;;27.14;50.95;100275.09;5127649;27;20039;-67
2023/10/13 11:06:45;;;;;;;9.10;2.38;;;;;;;26.92;51.25;100258.22;5128163;27;20023;-67
2023/10/13 11:11:53;;;;;;;7.45;3.17;;;;;;;27.14;50.87;100260.84;5115170;27;20027;-67
2023/10/13 11:14:29;;;;;;;10.80;2.90;;;;;;;27.35;50.05;100250.84;5109987;27;20482;-66
2023/10/13 11:17:13;;;;;;;7.10;2.53;;;;;;;27.29;50.88;100266.69;5109042;27;20030;-66
2023/10/13 11:19:42;;;;;;;4.32;2.53;;;;;;;28.42;48.82;100244.66;5094023;27;20111;-66
2023/10/13 11:22:32;;;;;;;8.52;2.50;;;;;;;27.14;49.50;100253.66;5112940;27;20030;-67
2023/10/13 11:25:11;;;;;;;9.23;3.03;;;;;;;27.05;50.46;100259.81;5119562;27;20080;-67
2023/10/13 11:30:13;;;;;;;;;;;;;;;27.33;49.01;100246.66;5119885;27;20037;-67
2023/10/13 11:32:41;;;;;;;14.10;3.17;;;;;;;26.88;50.12;100251.44;5121445;27;19915;-67
2023/10/13 11:35:29;;;;;;;10.35;3.40;;;;;;;26.84;50.24;100260.72;5110531;27;20497;-67
2023/10/13 11:38:13;;;;;;;9.57;3.10;;;;;;;26.99;49.18;100255.00;5115754;27;20019;-67
2023/10/13 11:41:06;;;;;;;10.85;3.35;;;;;;;27.32;47.69;100255.66;5118128;27;20027;-67
2023/10/13 11:46:14;;;;;;;9.52;3.47;;;;;;;26.65;49.68;100255.25;5118934;27;20050;-67
2023/10/13 11:48:42;;;;;;;9.20;2.97;;;;;;;27.44;47.77;100259.97;5110185;27;20020;-67
2023/10/13 11:51:17;;;;;;;12.18;3.75;;;;;;;26.44;49.17;100268.69;5099507;28;20106;-68
2023/10/13 11:53:43;;;;;;;7.28;3.05;;;;;;;27.00;48.25;100265.59;5111037;28;20146;-68
2023/10/13 11:56:09;;;;;;;6.35;3.22;;;;;;;27.37;47.91;100269.56;5109897;27;20077;-67
2023/10/13 11:58:39;;;;;;;10.35;3.60;;;;;;;27.43;47.47;100263.63;5116973;27;20031;-67
2023/10/13 12:11:41;;;;;;;13.82;3.15;;;;;;;26.97;48.76;100235.53;5126988;27;20493;-67
2023/10/13 12:14:17;;;;;;;12.05;3.45;;;;;;;26.77;48.92;100256.91;5115168;27;20766;-67
2023/10/13 12:16:48;;;;;;;4.85;2.50;;;;;;;26.96;48.14;100240.03;5110218;28;20066;-67
2023/10/13 12:19:16;;;;;;;13.18;3.33;;;;;;;27.07;47.70;100236.41;5118029;28;20047;-67
2023/10/13 12:21:43;;;;;;;12.95;3.40;;;;;;;27.16;46.86;100250.81;5112746;27;20063;-68
2023/10/13 12:24:21;;;;;;;8.13;2.83;;;;;;;27.38;46.77;100249.78;5116761;28;20050;-68
2023/10/13 12:26:47;;;;;;;6.80;2.75;;;;;;;28.43;44.56;100240.16;5130117;28;20027;-68
2023/10/13 12:29:22;;;;;;;10.02;2.97;;;;;;;27.80;46.26;100244.16;5128835;28;20405;-68
2023/10/13 12:32:01;;;;;;;11.20;3.92;;;;;;;26.97;47.64;100224.78;5123952;28;20479;-67
2023/10/13 12:34:46;;;;;;;18.00;3.05;;;;;;;26.89;48.42;100237.06;5110125;28;20398;-67
2023/10/13 12:37:38;;;;;;;10.88;3.15;;;;;;;27.79;46.71;100226.34;5122973;28;20019;-67
2023/10/13 12:51:07;;;;;;;11.05;3.22;;;;;;;27.78;48.77;100235.41;5112725;28;20033;-68
2023/10/13 12:53:33;;;;;;;9.60;3.55;;;;;;;26.88;50.29;100237.19;5109637;28;20027;-68
2023/10/13 12:55:58;;;;;;;15.20;2.80;;;;;;;27.25;49.45;100234.75;5120327;28;20035;-68
2023/10/13 12:58:26;;;;;;;11.02;3.55;;;;;;;27.64;49.13;100217.03;5109334;28;20020;-68
2023/10/13 13:00:59;;;;;;;8.57;3.55;;;;;;;26.82;51.64;100225.19;5109263;28;20058;-67
2023/10/13 13:03:29;;;;;;;12.43;3.75;;;;;;;26.36;52.76;100221.13;5111733;28;20023;-67
2023/10/13 13:05:55;;;;;;;9.38;3.45;;;;;;;26.35;53.34;100214.94;5117964;27;20027;-67
2023/10/13 13:08:22;;;;;;;6.25;3.80;;;;;;;26.97;51.60;100214.06;5114164;27;20111;-68
2023/10/13 13:10:48;;;;;;;7.82;3.10;;;;;;;26.45;53.14;100220.34;5124679;27;20132;-68
2023/10/13 13:13:16;;;;;;;9.13;3.72;;;;;;;26.85;51.82;100219.53;5115817;27;20422;-67
2023/10/13 13:15:42;;;;;;;11.35;4.75;;;;;;;26.63;52.00;100227.75;5113843;28;20024;-68
2023/10/13 13:18:11;;;;;;;6.10;3.30;;;;;;;26.92;51.62;100223.38;5113802;27;20142;-67
2023/10/13 13:20:39;;;;;;;9.23;3.78;;;;;;;26.24;52.47;100218.53;5115997;27;20030;-68
2023/10/13 13:23:05;;;;;;;11.55;3.97;;;;;;;26.81;51.53;100207.41;5119538;27;20112;-68
2023/10/13 13:25:31;;;;;;;12.65;3.65;;;;;;;26.33;52.24;100197.28;5115477;27;20028;-68
2023/10/13 13:27:58;;;;;;;17.67;4.88;;;;;;;26.50;51.84;100196.69;5112688;28;20498;-67
2023/10/13 13:30:33;;;;;;;5.68;3.20;;;;;;;26.85;51.64;100206.13;5112741;28;20082;-68
2023/10/13 13:33:03;;;;;;;8.70;3.28;;;;;;;26.83;51.43;100204.56;5111183;27;20032;-68
2023/10/13 13:35:34;;;;;;;9.50;3.65;;;;;;;26.71;52.04;100206.53;5114837;27;20043;-68
2023/10/13 13:38:09;;;;;;;7.78;2.90;;;;;;;26.87;51.34;100214.91;5128534;27;20026;-68
2023/10/13 13:40:36;;;;;;;6.63;2.95;;;;;;;25.76;52.87;100213.66;5117217;27;20036;-68
2023/10/13 13:43:02;;;;;;;9.52;3.53;;;;;;;26.33;53.38;100224.91;5122295;27;20602;-69
2023/10/13 13:45:27;;;;;;;21.33;3.97;;;;;;;26.18;54.70;100220.88;5116547;27;20068;-67
2023/10/13 13:47:53;;;;;;;6.35;2.95;;;;;;;25.30;61.25;100249.53;5119115;27;20016;-67
2023/10/13 13:50:32;;;;;;;15.77;3.78;;;;;;;25.04;65.92;100212.38;5112515;27;20110;-67
2023/10/13 13:52:58;;;;;;;14.18;3.90;;;;;;;25.09;67.54;100242.28;5123416;27;20487;-67
2023/10/13 13:55:24;;;;;;;9.10;4.32;;;;;;;25.01;68.46;100279.47;5110450;27;20106;-67
2023/10/13 13:57:52;;;;;;;11.55;3.60;;;;;;;23.53;77.07;100279.03;5108100;27;20039;-67
2023/10/13 14:00:36;;;;;;;17.00;4.18;;;;;;;24.31;74.82;100284.81;5133035;27;20043;-68
2023/10/13 14:03:03;;;;;;;11.88;3.25;;;;;;;24.04;77.62;100285.09;5125788;27;20035;-68
2023/10/13 14:05:28;;;;;;;6.57;2.88;;;;;;;24.66;77.26;100261.72;5114256;27;20019;-68
2023/10/13 14:07:55;;;;;;;7.55;2.80;;;;;;;24.19;80.88;100270.59;5101523;27;20088;-68
2023/10/13 14:10:33;;;;;;;6.72;1.75;;;;;;;24.15;80.40;100284.28;5118151;27;20394;-69
2023/10/13 14:13:13;;;;;;;0.00;0.00;;;;;;;23.98;82.22;100296.25;5106938;27;20364;-68
2023/10/13 14:15:44;;;;;;;0.00;0.00;;;;;;;24.01;83.70;100288.00;5098927;27;20532;-67
2023/10/13 14:18:14;;;;;;;0.00;0.00;;;;;;;23.75;87.82;100287.25;5091422;27;20429;-68
2023/10/13 14:20:42;;;;;;;0.30;0.30;;;;;;;23.78;83.22;100266.53;5114856;27;20031;-69
2023/10/13 14:23:11;;;;;;;0.00;0.00;;;;;;;23.74;87.63;100281.06;5113276;27;20024;-67
2023/10/13 14:25:37;;;;;;;2.10;0.80;;;;;;;23.85;86.49;100294.47;5112100;27;20040;-67
2023/10/13 14:28:06;;;;;;;0.00;0.00;;;;;;;23.38;89.07;100296.13;5115239;27;20038;-68
2023/10/13 14:30:32;;;;;;;0.00;0.00;;;;;;;23.71;91.24;100291.94;5121828;27;20027;-68
2023/10/13 14:32:58;;;;;;;1.55;1.20;;;;;;;24.21;84.57;100276.66;5099681;27;20035;-69
2023/10/13 14:35:25;;;;;;;2.38;1.85;;;;;;;24.68;80.98;100271.31;5132702;27;20382;-68
2023/10/13 14:37:52;;;;;;;0.00;0.00;;;;;;;24.27;84.78;100277.16;5132343;27;20031;-68
2023/10/13 14:40:21;;;;;;;1.65;1.55;;;;;;;24.79;81.64;100275.81;5125949;27;20391;-68
2023/10/13 14:42:47;;;;;;;0.00;0.00;;;;;;;25.08;80.53;100283.34;5113707;27;20022;-69
2023/10/13 14:45:13;;;;;;;0.20;0.20;;;;;;;25.53;77.35;100266.41;5132295;27;20065;-69
2023/10/13 14:47:41;;;;;;;0.00;0.00;;;;;;;24.32;82.83;100285.69;5132458;27;20050;-68
2023/10/13 14:50:11;;;;;;;2.45;2.20;;;;;;;24.54;83.49;100263.50;5125850;27;20015;-69
2023/10/13 14:52:36;;;;;;;0.30;0.30;;;;;;;24.86;80.25;100257.47;5128628;27;20061;-68
2023/10/13 14:55:07;;;;;;;0.00;0.00;;;;;;;24.40;82.06;100269.91;5111393;28;20023;-68
2023/10/13 14:57:32;;;;;;;0.00;0.00;;;;;;;24.46;82.74;100261.41;5111474;28;20542;-68
2023/10/13 14:59:58;;;;;;;0.00;0.00;;;;;;;25.10;76.20;100253.81;5111313;27;20127;-69
2023/10/13 15:02:23;;;;;;;0.45;0.45;;;;;;;25.28;74.94;100235.41;5111424;28;20024;-68
2023/10/13 15:04:49;;;;;;;0.00;0.00;;;;;;;24.12;82.62;100239.97;5114458;27;20023;-68
2023/10/13 15:07:17;;;;;;;0.30;0.30;;;;;;;25.65;74.61;100244.00;5131556;27;20030;-68
2023/10/13 15:09:43;;;;;;;4.97;2.92;;;;;;;24.54;79.71;100242.97;5132278;27;20031;-69
2023/10/13 15:12:10;;;;;;;1.85;1.13;;;;;;;25.03;80.29;100232.06;5121877;27;20157;-68
2023/10/13 15:14:42;;;;;;;2.28;1.65;;;;;;;25.03;80.60;100216.03;5111263;28;20106;-68
2023/10/13 15:17:07;;;;;;;1.35;1.25;;;;;;;25.43;76.13;100206.59;5111237;28;20460;-69
2023/10/13 15:19:38;;;;;;;0.00;0.00;;;;;;;25.35;76.86;100201.91;5110444;27;20032;-69